Time;durP1;ratioP1;P1;durP2;ratioP2;P2;SDS_P1;SDS_P2;PMS_P1;PMS_P2;Temp;Humidity;BMP_temperature;BMP_pressure;BME280_temperature;BME280_humidity;BME280_pressure;Samples;Min_cycle;Max_cycle;Signal;HPM_P1;HPM_P2
2022/08/31 00:06:01;;;;;;;8.00;3.00;;;;;;;22.41;56.41;100349.94;5112901;28;20042;-65
2022/08/31 00:08:28;;;;;;;4.68;2.88;;;;;;;22.38;56.45;100351.19;5110490;28;20118;-64
2022/08/31 00:10:55;;;;;;;8.38;3.38;;;;;;;22.38;56.31;100355.81;5088223;28;20090;-65
2022/08/31 00:13:25;;;;;;;5.38;3.08;;;;;;;22.37;56.16;100354.13;5113194;28;20054;-65
2022/08/31 00:15:51;;;;;;;5.20;2.85;;;;;;;22.36;56.20;100361.50;5126414;27;20088;-66
2022/08/31 00:18:18;;;;;;;9.05;3.30;;;;;;;22.35;56.29;100368.84;5109610;28;20537;-64
2022/08/31 00:20:45;;;;;;;6.50;3.10;;;;;;;22.32;55.96;100362.97;5109557;28;20035;-65
2022/08/31 00:23:13;;;;;;;8.10;3.60;;;;;;;22.32;55.97;100360.22;5065762;27;1190565;-65
2022/08/31 00:25:41;;;;;;;4.53;3.03;;;;;;;22.31;55.89;100361.25;5108184;27;20032;-66
2022/08/31 00:28:08;;;;;;;9.05;2.80;;;;;;;22.29;55.76;100353.28;5107167;28;20054;-65
2022/08/31 00:30:34;;;;;;;7.05;3.40;;;;;;;22.30;55.89;100360.44;5107444;28;20023;-65
2022/08/31 00:33:00;;;;;;;4.95;3.03;;;;;;;22.26;55.78;100367.38;5107067;28;20034;-67
2022/08/31 00:35:27;;;;;;;7.18;2.90;;;;;;;22.25;55.54;100365.69;5107600;28;20027;-66
2022/08/31 00:37:53;;;;;;;6.28;3.13;;;;;;;22.19;56.04;100354.75;5104615;28;20027;-65
2022/08/31 00:40:19;;;;;;;3.72;2.95;;;;;;;22.13;55.96;100350.13;5106700;28;20611;-65
2022/08/31 00:42:45;;;;;;;5.78;3.55;;;;;;;22.20;55.64;100367.34;5106879;28;20494;-65
2022/08/31 00:45:10;;;;;;;4.32;2.90;;;;;;;22.18;55.72;100359.38;5106644;28;20870;-65
2022/08/31 00:47:36;;;;;;;4.70;2.72;;;;;;;22.17;55.59;100360.44;5108377;27;20066;-66
2022/08/31 00:50:08;;;;;;;6.78;3.78;;;;;;;22.15;55.44;100361.66;5087093;28;20085;-65
2022/08/31 00:52:38;;;;;;;6.43;3.40;;;;;;;22.13;55.54;100355.59;5087838;28;20562;-65
2022/08/31 00:55:10;;;;;;;5.38;3.17;;;;;;;22.14;55.69;100363.56;5106504;28;20100;-66
2022/08/31 00:57:40;;;;;;;7.32;3.13;;;;;;;22.11;55.65;100358.53;5086722;28;20047;-66
2022/08/31 01:00:11;;;;;;;5.90;3.10;;;;;;;22.09;55.70;100354.31;5106528;28;20024;-64
2022/08/31 01:02:36;;;;;;;6.85;3.38;;;;;;;22.08;55.85;100366.28;5104229;28;20038;-65
2022/08/31 01:05:03;;;;;;;8.25;2.67;;;;;;;22.06;55.87;100357.47;5106676;28;20020;-66
2022/08/31 01:07:29;;;;;;;4.72;3.10;;;;;;;21.97;55.83;100347.78;5106489;28;20039;-66
2022/08/31 01:09:55;;;;;;;3.28;2.97;;;;;;;21.98;55.79;100354.91;5104025;28;20062;-66
2022/08/31 01:12:21;;;;;;;5.22;3.00;;;;;;;21.99;55.93;100362.91;5107063;27;20027;-66
2022/08/31 01:14:47;;;;;;;3.35;2.83;;;;;;;21.93;55.96;100358.25;5106491;28;20046;-67
2022/08/31 01:17:13;;;;;;;5.15;3.25;;;;;;;21.93;56.18;100369.19;5106555;28;20051;-64
2022/08/31 01:19:45;;;;;;;6.18;3.30;;;;;;;21.90;56.17;100368.78;5087918;28;20027;-64
2022/08/31 01:22:40;;;;;;;5.82;3.28;;;;;;;21.84;56.22;100361.41;5104795;28;20519;-65
2022/08/31 01:25:06;;;;;;;4.90;3.00;;;;;;;21.81;56.14;100359.09;5106546;28;20160;-66
2022/08/31 01:27:34;;;;;;;4.32;3.33;;;;;;;21.82;56.25;100363.50;5087695;28;20273;-66
2022/08/31 01:30:04;;;;;;;5.28;2.85;;;;;;;21.83;56.19;100370.66;5105910;28;20035;-66
2022/08/31 01:32:30;;;;;;;5.15;2.88;;;;;;;21.80;56.43;100373.78;5087144;28;20440;-66
2022/08/31 01:34:55;;;;;;;7.43;3.55;;;;;;;21.73;56.31;100362.84;5106381;28;20035;-66
2022/08/31 01:37:21;;;;;;;3.63;2.97;;;;;;;21.76;56.38;100364.31;5105702;28;20568;-66
2022/08/31 01:39:48;;;;;;;6.65;3.70;;;;;;;21.68;56.57;100356.28;5105957;28;20043;-66
2022/08/31 01:42:14;;;;;;;5.35;3.15;;;;;;;21.73;56.51;100364.75;5089338;28;20030;-66
2022/08/31 01:44:39;;;;;;;4.60;2.85;;;;;;;21.71;56.45;100372.25;5105465;28;20111;-66
2022/08/31 01:47:05;;;;;;;4.10;2.83;;;;;;;21.69;56.77;100371.59;5105632;28;20471;-64
2022/08/31 01:49:30;;;;;;;5.40;3.20;;;;;;;21.60;56.89;100354.56;5089420;28;20023;-65
2022/08/31 01:51:56;;;;;;;4.65;3.08;;;;;;;21.65;57.01;100363.00;5090163;28;20842;-66
2022/08/31 01:54:23;;;;;;;5.25;3.03;;;;;;;21.64;57.14;100364.03;5105498;28;20035;-66
2022/08/31 01:56:49;;;;;;;6.03;3.10;;;;;;;21.56;57.27;100342.38;5105301;28;20024;-66
2022/08/31 01:59:17;;;;;;;6.75;3.45;;;;;;;21.56;57.53;100357.91;5105618;28;20106;-66
2022/08/31 02:01:47;;;;;;;4.93;3.15;;;;;;;21.53;57.76;100361.03;5087079;28;20035;-65
2022/08/31 02:04:14;;;;;;;5.00;3.10;;;;;;;21.36;58.20;100351.53;5104967;28;20031;-64
2022/08/31 02:06:42;;;;;;;4.72;3.17;;;;;;;21.40;58.32;100366.44;5105031;28;20395;-65
2022/08/31 02:09:09;;;;;;;4.90;3.17;;;;;;;21.36;58.71;100376.09;5105353;28;20709;-65
2022/08/31 02:11:35;;;;;;;3.85;3.00;;;;;;;21.29;59.05;100367.88;5104191;28;20032;-65
2022/08/31 02:14:01;;;;;;;4.35;2.80;;;;;;;21.23;59.51;100374.16;5105286;28;20032;-65
2022/08/31 02:16:26;;;;;;;4.25;3.20;;;;;;;21.18;59.35;100362.16;5104907;28;20039;-65
2022/08/31 02:18:52;;;;;;;5.30;2.97;;;;;;;21.11;60.03;100361.25;5104749;28;20110;-65
2022/08/31 02:21:17;;;;;;;6.47;3.38;;;;;;;21.00;60.52;100359.97;5104343;28;20047;-65
2022/08/31 02:23:43;;;;;;;4.80;3.72;;;;;;;20.96;60.82;100366.84;5104497;28;20063;-65
2022/08/31 02:26:09;;;;;;;7.03;3.05;;;;;;;20.88;61.17;100357.94;5105082;28;20023;-66
2022/08/31 02:28:34;;;;;;;5.28;3.50;;;;;;;20.85;61.56;100363.78;5086130;28;20051;-67
2022/08/31 02:31:00;;;;;;;5.82;3.17;;;;;;;20.80;61.54;100358.94;5105203;28;20079;-66
2022/08/31 02:33:26;;;;;;;5.95;3.60;;;;;;;20.73;61.76;100343.59;5105313;28;20363;-66
2022/08/31 02:35:51;;;;;;;6.00;3.42;;;;;;;20.73;62.05;100349.88;5104868;28;20122;-65
2022/08/31 02:38:17;;;;;;;4.82;3.72;;;;;;;20.67;62.86;100353.38;5105133;28;20428;-65
2022/08/31 02:40:43;;;;;;;5.82;3.63;;;;;;;20.67;62.42;100356.13;5107122;28;20036;-65
2022/08/31 02:43:10;;;;;;;6.75;3.30;;;;;;;20.65;61.95;100360.94;5105301;28;20024;-66
2022/08/31 02:45:37;;;;;;;6.40;3.42;;;;;;;20.65;62.05;100360.94;5104584;28;20038;-67
2022/08/31 02:48:05;;;;;;;5.40;3.42;;;;;;;20.62;61.93;100347.72;5105021;28;20088;-65
2022/08/31 02:50:31;;;;;;;5.57;3.67;;;;;;;20.65;62.17;100354.63;5087474;28;20428;-66
2022/08/31 02:52:56;;;;;;;6.28;3.42;;;;;;;20.63;62.24;100348.56;5105074;28;20031;-65
2022/08/31 02:55:24;;;;;;;9.40;3.63;;;;;;;20.52;62.11;100332.72;5105325;28;20030;-65
2022/08/31 02:57:50;;;;;;;6.32;3.42;;;;;;;20.62;62.09;100344.13;5104176;28;20024;-66
2022/08/31 03:00:18;;;;;;;5.18;3.40;;;;;;;20.58;62.18;100337.41;5106696;28;20126;-66
2022/08/31 03:02:43;;;;;;;5.00;3.08;;;;;;;20.57;62.04;100333.00;5105094;28;20036;-66
2022/08/31 03:05:09;;;;;;;5.00;3.70;;;;;;;20.58;62.08;100340.97;5105150;28;20072;-65
2022/08/31 03:07:36;;;;;;;6.40;3.42;;;;;;;20.63;62.28;100345.84;5105650;28;20077;-65
2022/08/31 03:10:07;;;;;;;5.93;3.63;;;;;;;20.62;62.27;100355.03;5106122;28;20084;-66
2022/08/31 03:12:34;;;;;;;7.07;3.40;;;;;;;20.58;62.24;100348.28;5104295;28;20471;-65
2022/08/31 03:15:00;;;;;;;4.45;3.45;;;;;;;20.61;62.28;100356.06;5104956;28;20046;-66
2022/08/31 03:17:25;;;;;;;6.78;3.40;;;;;;;20.56;62.44;100356.66;5105889;28;20020;-66
2022/08/31 03:20:01;;;;;;;7.75;3.58;;;;;;;20.46;62.94;100348.00;5108002;28;20067;-66
2022/08/31 03:22:27;;;;;;;9.70;3.33;;;;;;;20.50;63.20;100360.19;5108227;28;20051;-65
2022/08/31 03:24:52;;;;;;;5.10;3.90;;;;;;;20.44;63.49;100358.22;5108501;28;20051;-66
2022/08/31 03:27:18;;;;;;;9.50;4.05;;;;;;;20.37;63.83;100356.53;5089626;28;20510;-66
2022/08/31 03:29:44;;;;;;;9.05;3.90;;;;;;;20.31;64.42;100362.75;5089627;28;21268;-66
2022/08/31 03:32:09;;;;;;;9.63;3.45;;;;;;;20.11;64.79;100338.91;5107816;28;20470;-65
2022/08/31 03:34:35;;;;;;;7.93;4.30;;;;;;;20.17;65.15;100361.78;5108065;28;20027;-66
2022/08/31 03:37:00;;;;;;;11.65;3.85;;;;;;;20.10;65.67;100367.13;5107589;28;20043;-65
2022/08/31 03:39:26;;;;;;;10.23;4.22;;;;;;;20.02;65.87;100364.53;5089192;28;20445;-65
2022/08/31 03:41:51;;;;;;;6.95;4.47;;;;;;;19.97;66.20;100367.00;5087898;28;20520;-66
2022/08/31 03:44:18;;;;;;;8.77;3.50;;;;;;;19.95;66.40;100369.06;5106992;28;20405;-65
2022/08/31 03:46:48;;;;;;;6.82;3.83;;;;;;;19.88;66.74;100360.00;5087702;28;20493;-66
2022/08/31 03:49:14;;;;;;;7.60;3.63;;;;;;;19.76;66.89;100342.47;5109619;27;20371;-66
2022/08/31 03:51:40;;;;;;;8.32;3.95;;;;;;;19.83;67.22;100364.34;5107405;27;20541;-66
2022/08/31 03:54:05;;;;;;;6.88;3.70;;;;;;;19.80;67.51;100362.00;5106130;28;20023;-65
2022/08/31 03:56:31;;;;;;;8.60;3.95;;;;;;;19.77;67.65;100365.94;5087895;28;20042;-65
2022/08/31 03:58:57;;;;;;;15.20;4.43;;;;;;;19.73;67.88;100358.34;5106705;28;20558;-65
2022/08/31 04:01:22;;;;;;;7.43;4.07;;;;;;;19.69;68.28;100366.06;5106145;28;20028;-65
2022/08/31 04:03:48;;;;;;;8.23;4.20;;;;;;;19.62;68.19;100356.97;5105978;28;20092;-66
2022/08/31 04:06:13;;;;;;;6.35;3.83;;;;;;;19.67;68.49;100365.41;5105758;28;20023;-65
2022/08/31 04:08:39;;;;;;;8.38;3.90;;;;;;;19.66;68.72;100365.59;5106205;28;20124;-66
2022/08/31 04:11:12;;;;;;;11.90;5.22;;;;;;;19.69;68.88;100363.34;5106183;28;20073;-65
2022/08/31 04:13:38;;;;;;;12.45;5.20;;;;;;;19.72;69.13;100381.16;5105659;28;20117;-65
2022/08/31 04:16:07;;;;;;;12.20;4.32;;;;;;;19.71;68.66;100366.72;5087649;28;20070;-65
2022/08/31 04:18:34;;;;;;;8.30;4.57;;;;;;;19.78;68.63;100374.94;5106880;27;20047;-66
2022/08/31 04:20:59;;;;;;;8.65;4.20;;;;;;;19.80;68.41;100376.44;5105762;28;20031;-67
2022/08/31 04:23:28;;;;;;;10.00;4.65;;;;;;;19.82;68.63;100382.53;5105531;28;20389;-65
2022/08/31 04:25:54;;;;;;;7.78;4.07;;;;;;;19.83;68.30;100373.31;5106076;28;20023;-65
2022/08/31 04:28:19;;;;;;;8.68;4.10;;;;;;;19.81;68.38;100374.56;5107580;27;20027;-65
2022/08/31 04:30:47;;;;;;;10.07;4.13;;;;;;;19.85;67.98;100379.44;5086976;28;20038;-66
2022/08/31 04:33:12;;;;;;;7.65;4.78;;;;;;;19.87;68.19;100376.53;5105552;28;20475;-66
2022/08/31 04:35:40;;;;;;;6.05;4.18;;;;;;;19.89;68.01;100380.72;5104308;28;20031;-65
2022/08/31 04:38:05;;;;;;;6.20;4.53;;;;;;;19.88;68.21;100372.75;5101055;28;20022;-65
2022/08/31 04:40:31;;;;;;;11.27;4.72;;;;;;;19.89;68.70;100369.84;5105620;28;20043;-66
2022/08/31 04:42:56;;;;;;;6.82;4.05;;;;;;;19.98;68.70;100379.56;5105794;28;20386;-66
2022/08/31 04:45:23;;;;;;;6.65;4.40;;;;;;;19.98;68.68;100379.56;5105493;28;20024;-66
2022/08/31 04:47:49;;;;;;;8.57;5.05;;;;;;;20.00;68.56;100380.22;5105634;28;20035;-65
2022/08/31 04:50:15;;;;;;;10.60;4.60;;;;;;;20.07;68.28;100388.47;5105557;28;20106;-66
2022/08/31 04:52:41;;;;;;;7.82;4.72;;;;;;;20.12;68.11;100394.22;5105386;28;20083;-66
2022/08/31 04:55:07;;;;;;;9.02;5.10;;;;;;;20.15;67.84;100400.09;5105504;28;20035;-65
2022/08/31 04:57:34;;;;;;;8.05;4.57;;;;;;;20.16;68.04;100396.31;5104666;28;20042;-64
2022/08/31 05:00:01;;;;;;;10.27;4.70;;;;;;;20.17;68.04;100403.47;5105504;28;20080;-64
2022/08/31 05:02:26;;;;;;;14.02;4.57;;;;;;;20.18;67.75;100397.00;5105340;28;20093;-66
2022/08/31 05:04:52;;;;;;;10.07;4.97;;;;;;;20.25;67.43;100407.13;5087246;28;20951;-64
2022/08/31 05:07:17;;;;;;;9.35;4.60;;;;;;;20.27;67.69;100410.47;5104762;28;20023;-64
2022/08/31 05:09:42;;;;;;;9.00;4.78;;;;;;;20.35;67.60;100410.34;5105465;28;20040;-65
2022/08/31 05:12:08;;;;;;;8.50;5.13;;;;;;;20.37;67.80;100405.56;5104734;28;20083;-66
2022/08/31 05:14:34;;;;;;;9.63;4.65;;;;;;;20.39;67.82;100404.31;5104819;28;20031;-67
2022/08/31 05:17:00;;;;;;;10.38;4.88;;;;;;;20.47;67.73;100400.63;5086809;28;20011;-66
2022/08/31 05:19:26;;;;;;;8.57;5.15;;;;;;;20.53;67.80;100411.56;5087508;28;20035;-66
2022/08/31 05:21:52;;;;;;;10.70;5.05;;;;;;;20.56;67.32;100400.28;5086628;28;20125;-65
2022/08/31 05:24:21;;;;;;;8.50;5.75;;;;;;;20.56;67.00;100402.16;5104971;28;20071;-66
2022/08/31 05:26:49;;;;;;;9.60;5.43;;;;;;;20.50;66.76;100386.59;5104885;27;20031;-66
2022/08/31 05:29:18;;;;;;;9.63;5.25;;;;;;;20.64;66.91;100410.19;5105063;28;20034;-65
2022/08/31 05:31:44;;;;;;;11.70;5.47;;;;;;;20.63;66.68;100395.72;5104259;28;20099;-65
2022/08/31 05:34:14;;;;;;;12.60;5.15;;;;;;;20.63;67.05;100392.16;5106593;27;20034;-65
2022/08/31 05:36:41;;;;;;;11.07;4.95;;;;;;;20.77;66.67;100407.56;5104173;28;20039;-64
2022/08/31 05:39:10;;;;;;;14.20;5.20;;;;;;;20.83;66.85;100406.78;5104328;28;20043;-65
2022/08/31 05:41:37;;;;;;;8.43;4.65;;;;;;;20.85;65.97;100410.13;5104585;28;20026;-65
2022/08/31 05:44:04;;;;;;;10.65;4.88;;;;;;;20.95;65.91;100408.78;5104137;28;20040;-65
2022/08/31 05:46:30;;;;;;;10.90;6.57;;;;;;;21.02;65.72;100412.41;5086812;27;20023;-65
2022/08/31 05:48:55;;;;;;;13.07;8.43;;;;;;;21.11;65.76;100399.44;5104599;28;20027;-66
2022/08/31 05:51:22;;;;;;;12.15;8.02;;;;;;;21.19;65.44;100393.84;5104968;28;20589;-65
2022/08/31 05:53:48;;;;;;;14.27;6.30;;;;;;;21.34;65.42;100402.72;5085667;28;20027;-65
2022/08/31 05:56:16;;;;;;;10.13;5.68;;;;;;;21.43;64.71;100399.66;5104290;28;20110;-66
2022/08/31 05:58:43;;;;;;;6.97;4.50;;;;;;;21.60;64.43;100409.16;5104444;28;20028;-66
2022/08/31 06:01:24;;;;;;;9.10;4.10;;;;;;;21.69;64.06;100393.44;5083786;28;20031;-65
2022/08/31 06:03:52;;;;;;;10.88;4.65;;;;;;;21.86;63.57;100403.00;5084413;28;20095;-67
2022/08/31 06:06:19;;;;;;;8.75;4.43;;;;;;;21.97;62.44;100411.44;5101747;28;20402;-65
2022/08/31 06:08:44;;;;;;;14.18;4.30;;;;;;;22.02;61.65;100389.81;5103697;28;20055;-66
2022/08/31 06:11:14;;;;;;;11.95;4.80;;;;;;;22.15;61.20;100397.19;5104771;28;20023;-65
2022/08/31 06:13:40;;;;;;;8.60;4.35;;;;;;;22.32;60.88;100399.31;5103776;28;20535;-66
2022/08/31 06:16:07;;;;;;;6.80;4.50;;;;;;;22.50;60.53;100401.47;5105827;27;20039;-65
2022/08/31 06:18:32;;;;;;;10.98;4.22;;;;;;;22.61;58.60;100400.00;5105740;27;20031;-66
2022/08/31 06:21:08;;;;;;;6.78;4.15;;;;;;;22.77;58.99;100400.44;5104459;28;20027;-64
2022/08/31 06:23:35;;;;;;;8.18;4.22;;;;;;;22.91;58.00;100398.50;5103482;28;20395;-66
2022/08/31 06:26:05;;;;;;;7.70;4.65;;;;;;;23.00;58.11;100381.69;5103816;28;20023;-65
2022/08/31 06:28:32;;;;;;;7.03;3.97;;;;;;;23.17;57.82;100380.16;5085501;28;20036;-65
2022/08/31 06:31:01;;;;;;;7.95;4.07;;;;;;;23.31;57.18;100381.84;5103902;28;20027;-64
2022/08/31 06:33:28;;;;;;;9.25;4.25;;;;;;;23.54;57.18;100389.56;5104834;28;20464;-64
2022/08/31 06:35:54;;;;;;;6.82;4.07;;;;;;;23.67;56.36;100387.59;5082668;28;20116;-65
2022/08/31 06:38:20;;;;;;;7.50;4.07;;;;;;;23.80;55.21;100390.28;5102913;28;20510;-65
2022/08/31 06:40:46;;;;;;;4.50;3.60;;;;;;;23.90;54.64;100395.28;5084798;28;20020;-65
2022/08/31 06:43:11;;;;;;;6.57;3.75;;;;;;;24.10;54.20;100404.28;5085348;28;20032;-64
2022/08/31 06:45:37;;;;;;;5.05;3.80;;;;;;;24.20;54.19;100394.53;5085014;28;20059;-64
2022/08/31 06:48:03;;;;;;;5.25;3.53;;;;;;;24.38;54.03;100396.50;5103338;28;20052;-65
2022/08/31 06:50:28;;;;;;;5.93;3.83;;;;;;;24.57;53.72;100409.25;5085689;28;20364;-64
2022/08/31 06:52:54;;;;;;;8.02;3.97;;;;;;;24.70;52.96;100405.56;5103242;28;20058;-65
2022/08/31 06:55:20;;;;;;;5.70;3.78;;;;;;;24.80;52.07;100394.94;5087109;28;20031;-65
2022/08/31 06:57:46;;;;;;;6.75;4.45;;;;;;;24.97;51.83;100413.34;5088634;28;20024;-66
2022/08/31 07:00:11;;;;;;;9.18;4.10;;;;;;;25.05;51.57;100402.06;5107505;28;20054;-65
2022/08/31 07:02:37;;;;;;;6.40;3.60;;;;;;;25.15;51.36;100388.66;5088758;28;20441;-65
2022/08/31 07:05:03;;;;;;;5.15;3.38;;;;;;;25.33;50.95;100396.09;5107334;28;20418;-65
2022/08/31 07:07:30;;;;;;;7.07;4.22;;;;;;;25.38;50.99;100413.59;5107696;28;20023;-65
2022/08/31 07:09:55;;;;;;;8.15;4.07;;;;;;;25.30;50.97;100402.00;5107129;28;20155;-64
2022/08/31 07:12:21;;;;;;;4.32;3.45;;;;;;;25.27;51.01;100402.47;5107339;28;20581;-65
2022/08/31 07:14:46;;;;;;;9.63;3.90;;;;;;;25.27;51.26;100402.47;5106886;27;20398;-65
2022/08/31 07:17:12;;;;;;;9.68;4.45;;;;;;;25.20;51.19;100407.19;5108793;27;20024;-65
2022/08/31 07:19:37;;;;;;;6.97;3.97;;;;;;;25.27;51.69;100410.72;5104345;28;20550;-66
2022/08/31 07:22:05;;;;;;;6.97;4.32;;;;;;;25.18;51.46;100395.63;5096521;28;20048;-65
2022/08/31 07:24:33;;;;;;;8.95;4.28;;;;;;;25.09;51.39;100402.47;5105529;28;20035;-66
2022/08/31 07:27:08;;;;;;;6.38;4.30;;;;;;;24.99;51.94;100400.22;5106833;28;20034;-64
2022/08/31 07:29:39;;;;;;;9.13;3.90;;;;;;;24.91;51.80;100394.19;5088381;28;20027;-65
2022/08/31 07:32:10;;;;;;;5.07;3.60;;;;;;;25.05;51.93;100404.00;5105411;28;20064;-64
2022/08/31 07:34:36;;;;;;;5.75;3.83;;;;;;;25.06;52.00;100400.16;5088229;28;20046;-66
2022/08/31 07:42:37;;;;;;;9.18;4.50;;;;;;;25.16;52.36;100395.84;5107110;28;20231;-64
2022/08/31 07:45:05;;;;;;;6.65;3.95;;;;;;;25.14;51.96;100397.97;5108395;27;20027;-66
2022/08/31 07:47:32;;;;;;;9.15;4.20;;;;;;;25.18;51.83;100390.94;5107360;28;20027;-64
2022/08/31 07:50:00;;;;;;;10.32;3.83;;;;;;;25.27;52.03;100386.84;5107558;27;20475;-64
2022/08/31 07:52:31;;;;;;;10.48;4.00;;;;;;;25.30;51.93;100391.88;5089054;28;20047;-65
2022/08/31 07:55:06;;;;;;;6.30;4.60;;;;;;;25.39;51.95;100387.81;5106575;28;20091;-65
2022/08/31 07:57:39;;;;;;;7.55;4.10;;;;;;;25.40;52.39;100396.88;5106774;28;20147;-65
2022/08/31 08:00:08;;;;;;;9.00;4.03;;;;;;;25.40;51.83;100392.22;5105676;27;20786;-66
2022/08/31 08:02:37;;;;;;;9.65;3.97;;;;;;;25.40;52.26;100374.88;5087641;28;20023;-65
2022/08/31 08:05:08;;;;;;;8.70;4.03;;;;;;;25.53;52.09;100382.97;5105992;28;20066;-65
2022/08/31 08:07:36;;;;;;;11.18;4.00;;;;;;;25.62;52.15;100389.84;5106216;28;20052;-65
2022/08/31 08:10:04;;;;;;;7.85;4.03;;;;;;;25.71;51.75;100382.97;5103968;28;20134;-64
2022/08/31 08:12:35;;;;;;;10.40;4.47;;;;;;;25.74;51.65;100386.09;5105868;28;20027;-65
2022/08/31 08:15:04;;;;;;;9.10;4.32;;;;;;;25.79;51.88;100389.00;5087090;28;20054;-65
2022/08/31 08:17:30;;;;;;;6.97;4.80;;;;;;;25.84;51.64;100377.31;5107941;27;20721;-66
2022/08/31 08:19:55;;;;;;;6.38;4.20;;;;;;;25.94;51.36;100378.44;5105618;28;20035;-66
2022/08/31 08:22:21;;;;;;;5.05;3.83;;;;;;;25.96;51.37;100369.97;5105673;28;20186;-65
2022/08/31 08:24:47;;;;;;;8.20;4.55;;;;;;;26.04;50.99;100370.50;5105168;28;20040;-65
2022/08/31 08:27:14;;;;;;;5.35;3.75;;;;;;;26.16;51.35;100389.78;5100888;28;20023;-64
2022/08/31 08:29:40;;;;;;;6.03;3.60;;;;;;;26.18;50.79;100371.16;5102235;28;20023;-65
2022/08/31 08:32:07;;;;;;;5.13;3.97;;;;;;;26.29;50.43;100382.19;5105288;27;20025;-64
2022/08/31 08:34:33;;;;;;;7.65;4.43;;;;;;;26.34;50.77;100375.94;5105789;28;20039;-65
2022/08/31 08:36:59;;;;;;;11.93;4.72;;;;;;;26.36;50.51;100382.91;5105580;28;20028;-65
2022/08/31 08:39:26;;;;;;;7.82;4.90;;;;;;;26.38;50.01;100383.50;5087323;28;20036;-64
2022/08/31 08:41:54;;;;;;;6.28;4.10;;;;;;;26.43;50.06;100372.63;5104989;28;20045;-65
2022/08/31 08:44:23;;;;;;;5.55;3.72;;;;;;;26.50;50.29;100375.28;5107039;27;20050;-64
2022/08/31 08:46:52;;;;;;;9.18;4.32;;;;;;;26.48;49.69;100377.44;5106556;27;20023;-65
2022/08/31 08:49:39;;;;;;;9.55;4.05;;;;;;;26.55;49.75;100369.91;5102674;28;20047;-65
2022/08/31 08:52:13;;;;;;;10.32;4.20;;;;;;;26.68;49.59;100368.88;5086342;28;20106;-66
2022/08/31 08:54:45;;;;;;;7.25;4.20;;;;;;;26.71;49.88;100351.88;5104640;28;20081;-65
2022/08/31 08:57:19;;;;;;;10.73;4.10;;;;;;;26.81;49.58;100350.22;5104772;28;20504;-65
2022/08/31 08:59:47;;;;;;;8.32;4.40;;;;;;;26.85;48.67;100348.66;5104493;28;20385;-65
2022/08/31 09:02:25;;;;;;;7.60;4.10;;;;;;;27.00;48.79;100342.66;5104525;28;20072;-66
2022/08/31 09:05:00;;;;;;;6.32;4.38;;;;;;;27.12;48.38;100344.34;5085020;28;20131;-65
2022/08/31 09:08:03;;;;;;;12.35;4.05;;;;;;;27.19;48.01;100345.06;5105054;28;20031;-66
2022/08/31 09:10:41;;;;;;;4.80;3.70;;;;;;;27.31;47.82;100337.63;5041461;28;20033;-66
2022/08/31 09:13:42;;;;;;;8.57;3.60;;;;;;;27.41;47.54;100342.53;5097525;27;20114;-66
2022/08/31 09:16:28;;;;;;;7.93;4.10;;;;;;;27.50;47.34;100339.13;5054245;28;20035;-65
2022/08/31 09:19:02;;;;;;;4.22;3.83;;;;;;;27.57;46.94;100336.25;5104280;28;20024;-65
2022/08/31 09:21:37;;;;;;;5.70;3.25;;;;;;;27.67;46.13;100336.47;5105180;28;20112;-65
2022/08/31 09:24:06;;;;;;;5.55;3.70;;;;;;;27.70;45.51;100331.28;5085855;28;20394;-65
2022/08/31 09:26:49;;;;;;;7.60;3.72;;;;;;;27.77;45.00;100332.00;5104004;28;20113;-65
2022/08/31 09:29:27;;;;;;;6.63;3.45;;;;;;;27.87;44.69;100321.19;5104821;28;20399;-66
2022/08/31 09:32:08;;;;;;;5.07;3.67;;;;;;;27.94;44.24;100327.38;5103027;28;20062;-66
2022/08/31 09:34:37;;;;;;;5.43;3.47;;;;;;;28.08;43.64;100338.97;5103486;28;20024;-65
2022/08/31 09:37:45;;;;;;;7.20;4.00;;;;;;;28.15;42.82;100332.19;5086008;28;20016;-66
2022/08/31 09:40:34;;;;;;;5.18;3.53;;;;;;;28.26;43.26;100328.53;5102548;28;20103;-65
2022/08/31 09:43:12;;;;;;;4.68;3.72;;;;;;;28.37;43.48;100321.25;5103807;28;20034;-64
2022/08/31 09:45:51;;;;;;;6.80;4.03;;;;;;;28.42;43.65;100319.44;5103075;28;20522;-65
2022/08/31 09:48:42;;;;;;;5.43;3.72;;;;;;;28.44;42.84;100320.03;5104615;28;20027;-65
2022/08/31 09:51:10;;;;;;;6.10;3.58;;;;;;;28.51;42.99;100309.66;5083947;28;20031;-66
2022/08/31 09:56:26;;;;;;;7.18;3.10;;;;;;;28.52;42.54;100291.19;5104565;28;20042;-64
2022/08/31 09:59:03;;;;;;;3.75;3.00;;;;;;;28.65;41.97;100304.63;5104474;28;20104;-66
2022/08/31 10:01:33;;;;;;;4.25;3.05;;;;;;;28.75;41.63;100312.25;5105086;28;20779;-66
2022/08/31 10:04:18;;;;;;;4.53;3.10;;;;;;;28.80;41.07;100304.88;5104321;28;20054;-65
2022/08/31 10:07:15;;;;;;;3.45;3.08;;;;;;;28.86;40.79;100295.59;5103452;27;20039;-66
2022/08/31 10:09:45;;;;;;;5.65;3.30;;;;;;;28.90;40.75;100284.84;5104502;27;20035;-65
2022/08/31 10:12:42;;;;;;;4.45;3.03;;;;;;;28.97;40.78;100282.72;5108387;27;20047;-66
2022/08/31 10:15:51;;;;;;;8.45;3.13;;;;;;;28.99;40.98;100277.81;5085248;28;20051;-67
2022/08/31 10:18:49;;;;;;;5.53;2.92;;;;;;;29.07;40.30;100288.44;5102229;28;20043;-66
2022/08/31 10:21:28;;;;;;;4.65;2.90;;;;;;;29.08;40.12;100279.88;5102733;28;20027;-65
2022/08/31 10:24:09;;;;;;;5.53;3.33;;;;;;;29.09;39.37;100280.72;5084402;28;20027;-65
2022/08/31 10:26:47;;;;;;;3.90;3.00;;;;;;;29.12;39.25;100269.16;5104395;28;20024;-66
2022/08/31 10:29:21;;;;;;;4.93;2.90;;;;;;;29.17;39.52;100269.25;5104064;28;20036;-66
2022/08/31 10:31:50;;;;;;;7.88;3.08;;;;;;;29.21;39.48;100273.16;5108207;28;20042;-66
2022/08/31 10:37:14;;;;;;;5.45;2.70;;;;;;;29.29;39.34;100253.34;5108089;28;20114;-67
2022/08/31 10:40:16;;;;;;;3.80;3.07;;;;;;;29.37;39.15;100252.91;5107701;28;20032;-66
2022/08/31 10:42:54;;;;;;;4.22;2.65;;;;;;;29.42;38.92;100258.50;5072197;28;20050;-66
2022/08/31 10:45:23;;;;;;;5.55;2.88;;;;;;;29.42;39.40;100247.44;5108176;27;20185;-67
2022/08/31 10:47:52;;;;;;;4.70;2.67;;;;;;;29.42;39.37;100244.66;5109965;27;20028;-69
2022/08/31 10:50:32;;;;;;;6.28;3.05;;;;;;;29.36;38.14;100238.25;5107417;28;20030;-65
2022/08/31 10:53:32;;;;;;;7.47;3.03;;;;;;;29.38;37.96;100241.59;5109507;27;20020;-66
2022/08/31 10:56:13;;;;;;;4.53;2.85;;;;;;;29.41;38.05;100245.78;5105156;28;20084;-66
2022/08/31 10:59:06;;;;;;;7.63;2.63;;;;;;;29.39;37.74;100243.25;5106625;28;20031;-65
2022/08/31 11:02:09;;;;;;;5.57;3.00;;;;;;;29.44;37.46;100240.53;5110166;27;20106;-66
2022/08/31 11:04:54;;;;;;;3.92;2.60;;;;;;;29.41;37.22;100229.19;5107886;27;20039;-65
2022/08/31 11:07:41;;;;;;;3.10;2.30;;;;;;;29.52;37.06;100242.84;5101142;27;20028;-65
2022/08/31 11:10:23;;;;;;;4.47;3.15;;;;;;;29.57;38.42;100240.16;5103828;27;20505;-65
2022/08/31 11:12:55;;;;;;;4.85;2.83;;;;;;;29.70;37.92;100230.66;5105996;28;20062;-66
2022/08/31 11:15:43;;;;;;;7.40;3.15;;;;;;;29.75;37.23;100236.22;5110312;27;20463;-66
2022/08/31 11:18:38;;;;;;;4.78;2.65;;;;;;;29.70;38.04;100230.66;5104340;28;20679;-65
2022/08/31 11:21:34;;;;;;;7.43;2.90;;;;;;;29.68;38.10;100232.81;5087600;28;20044;-65
2022/08/31 11:24:24;;;;;;;3.80;2.42;;;;;;;29.70;37.62;100225.13;5104790;28;20035;-66
2022/08/31 11:26:55;;;;;;;4.93;2.60;;;;;;;29.70;38.04;100227.88;5105260;28;20035;-66
2022/08/31 11:29:34;;;;;;;4.60;3.00;;;;;;;29.66;38.10;100212.91;5108023;27;20028;-66
2022/08/31 11:32:10;;;;;;;6.75;3.42;;;;;;;29.72;38.08;100214.59;5103328;28;20031;-65
2022/08/31 11:35:07;;;;;;;3.22;2.83;;;;;;;29.78;37.97;100211.63;5106893;27;20367;-65
2022/08/31 11:37:54;;;;;;;2.95;2.67;;;;;;;29.80;38.10;100208.63;5087888;28;20383;-66
2022/08/31 11:40:42;;;;;;;4.75;3.20;;;;;;;29.77;38.63;100209.97;5104965;28;20116;-66
2022/08/31 11:43:30;;;;;;;6.90;3.28;;;;;;;29.77;38.29;100214.66;5107167;27;20118;-64
2022/08/31 11:46:00;;;;;;;7.93;3.20;;;;;;;29.75;38.92;100205.78;5104156;27;20047;-66
2022/08/31 11:48:50;;;;;;;4.32;3.17;;;;;;;29.83;39.01;100205.31;5105001;28;20600;-65
2022/08/31 11:51:43;;;;;;;3.65;2.90;;;;;;;29.93;37.94;100202.66;5104052;27;20039;-67
2022/08/31 11:54:25;;;;;;;5.95;3.30;;;;;;;29.97;38.21;100198.25;5103300;28;20039;-66
2022/08/31 11:56:55;;;;;;;4.95;3.05;;;;;;;30.00;37.96;100200.50;5105210;28;20046;-65